Quick Links (Output Below):   Max & Min Temps   /   Climate Reports   /   Zone Forecasts
River Forecasts   /   Forestry Forecasts   /   Aviation Forecasts   /   Radars   /   Features

Terminal Aerodrome Forecast (Harrison)

Pick a Site:
Arkadelphia | El Dorado | Fayetteville | Fort Smith | Harrison | Highfill | Hot Springs | Jonesboro
Little Rock | Monticello | Mountain Home | Pine Bluff | Texarkana
 Forecast 

KHRO 021433Z 0215/0312 13007KT P6SM VCTS SCT040CB BKN100
      TEMPO 0215/0217 4SM -RA BR BKN040
     FM021700 19008KT P6SM SCT040 SCT120
     FM030100 18006KT P6SM SCT120
     FM030800 15009KT P6SM SCT040 OVC080 PROB30 0308/0312 4SM -TSRA
      BR SCT040CB=


 Latest METARs (Observations) 
How to Decode METARs
NO CURRENT OBSERVATIONS

***** Today's Observations (Above) *****


17Z KHRO 021653Z AUTO 23009KT 10SM -RA FEW110 19/18 A3009 RMK AO2
         SLP178 P0003 T01940183
         
16Z KHRO 021553Z AUTO 18013G22KT 9SM -RA SCT100 BKN120 19/18 A3004 RMK
         AO2 SLP160 P0014 T01890183
         
15Z KHRO 021453Z AUTO 18008KT 7SM RA BKN110 19/18 A3009 RMK AO2 LTG
         DSNT SW TSE1357 SLP177 P0012 60039 T01890183 53001
         
14Z KHRO 021353Z AUTO 17005KT 6SM TSRA BR BKN100 19/18 A3007 RMK AO2
         LTG DSNT SW TSE1254B42 SLP168 P0007 T01890183
         
13Z KHRO 021253Z AUTO 22003KT 10SM -TSRA SCT100 BKN110 18/18 A3009 RMK
         AO2 LTG DSNT S AND W TSB17E32B39 SLP175 P0020 T01830178
         
12Z KHRO 021153Z AUTO 30010KT 5SM VCTS RA BR FEW024 BKN075 OVC090
         19/19 A3009 RMK AO2 LTG DSNT SW-N RAE1059B19 SLP174 P0012
         60031 70032 T01890189 10244 20189 53025
         
11Z KHRO 021053Z AUTO 14006KT 10SM -RA OVC080 19/19 A3003 RMK AO2 LTG
         DSNT NW-NE TSB30E47 SLP153 P0012 T01890189
         
10Z KHRO 020953Z AUTO 32008KT 10SM -RA FEW016 BKN048 OVC055 19/19
         A3006 RMK AO2 LTG DSNT ALQDS RAE0857B11 SLP163 P0007
         T01940189
         
09Z KHRO 020853Z AUTO 35006KT 10SM -RA SCT021 BKN060 BKN075 23/22
         A3001 RMK AO2 LTG DSNT NW-NE RAB36 PRESRR SLP145 P0000 60000
         T02330222 53019
         
08Z KHRO 020753Z AUTO 15007KT 10SM FEW065 24/22 A2996 RMK AO2 LTG DSNT
         N SLP128 T02440217
         
***** Yesterday's Observations (Above) *****


Back to Main Page
http://www.srh.noaa.gov/lzk/qfcst.php

USA.gov is the U.S. government's official web portal to all federal, state and local government web resources and services.